sensor_id;sensor_type;location;lat;lon;timestamp;P1;durP1;ratioP1;P2;durP2;ratioP2
38937;SDS011;24727;51.974;20.868;2022-08-19T00:00:52;11.48;;;9.88;;
38937;SDS011;24727;51.974;20.868;2022-08-19T00:03:18;15.20;;;11.88;;
38937;SDS011;24727;51.974;20.868;2022-08-19T00:05:44;14.30;;;12.75;;
38937;SDS011;24727;51.974;20.868;2022-08-19T00:08:10;17.38;;;13.13;;
38937;SDS011;24727;51.974;20.868;2022-08-19T00:10:36;14.90;;;12.82;;
38937;SDS011;24727;51.974;20.868;2022-08-19T00:13:02;13.15;;;11.70;;
38937;SDS011;24727;51.974;20.868;2022-08-19T00:15:29;13.65;;;12.30;;
38937;SDS011;24727;51.974;20.868;2022-08-19T00:17:55;12.38;;;10.80;;
38937;SDS011;24727;51.974;20.868;2022-08-19T00:20:21;12.98;;;11.50;;
38937;SDS011;24727;51.974;20.868;2022-08-19T00:22:47;13.15;;;11.45;;
38937;SDS011;24727;51.974;20.868;2022-08-19T00:25:14;17.92;;;12.68;;
38937;SDS011;24727;51.974;20.868;2022-08-19T00:27:42;14.73;;;13.23;;
38937;SDS011;24727;51.974;20.868;2022-08-19T00:30:09;18.70;;;13.43;;
38937;SDS011;24727;51.974;20.868;2022-08-19T00:32:36;15.90;;;13.38;;
38937;SDS011;24727;51.974;20.868;2022-08-19T00:35:02;16.08;;;13.45;;
38937;SDS011;24727;51.974;20.868;2022-08-19T00:37:28;14.00;;;12.60;;
38937;SDS011;24727;51.974;20.868;2022-08-19T00:40:01;13.75;;;12.35;;
38937;SDS011;24727;51.974;20.868;2022-08-19T00:42:29;17.08;;;12.35;;
38937;SDS011;24727;51.974;20.868;2022-08-19T00:44:57;17.17;;;12.73;;
38937;SDS011;24727;51.974;20.868;2022-08-19T00:47:24;12.73;;;10.60;;
38937;SDS011;24727;51.974;20.868;2022-08-19T00:49:52;15.00;;;13.50;;
38937;SDS011;24727;51.974;20.868;2022-08-19T00:52:26;11.82;;;10.55;;
38937;SDS011;24727;51.974;20.868;2022-08-19T00:54:55;17.25;;;13.57;;
38937;SDS011;24727;51.974;20.868;2022-08-19T00:57:25;14.57;;;13.07;;
38937;SDS011;24727;51.974;20.868;2022-08-19T00:59:54;15.35;;;13.48;;
38937;SDS011;24727;51.974;20.868;2022-08-19T01:02:23;14.82;;;12.77;;
38937;SDS011;24727;51.974;20.868;2022-08-19T01:04:49;15.35;;;13.77;;
38937;SDS011;24727;51.974;20.868;2022-08-19T01:07:15;15.70;;;13.38;;
38937;SDS011;24727;51.974;20.868;2022-08-19T01:09:42;15.02;;;13.50;;
38937;SDS011;24727;51.974;20.868;2022-08-19T01:12:08;19.10;;;10.38;;
38937;SDS011;24727;51.974;20.868;2022-08-19T01:14:35;13.48;;;11.30;;
38937;SDS011;24727;51.974;20.868;2022-08-19T01:17:04;13.25;;;11.80;;
38937;SDS011;24727;51.974;20.868;2022-08-19T01:19:38;17.98;;;12.27;;
38937;SDS011;24727;51.974;20.868;2022-08-19T01:24:38;17.42;;;13.50;;
38937;SDS011;24727;51.974;20.868;2022-08-19T01:27:05;12.32;;;11.02;;
38937;SDS011;24727;51.974;20.868;2022-08-19T01:29:33;13.20;;;11.65;;
38937;SDS011;24727;51.974;20.868;2022-08-19T01:32:02;15.27;;;13.52;;
38937;SDS011;24727;51.974;20.868;2022-08-19T01:34:28;14.60;;;13.10;;
38937;SDS011;24727;51.974;20.868;2022-08-19T01:36:54;13.63;;;12.15;;
38937;SDS011;24727;51.974;20.868;2022-08-19T01:39:21;11.43;;;10.15;;
38937;SDS011;24727;51.974;20.868;2022-08-19T01:41:49;20.65;;;12.70;;
38937;SDS011;24727;51.974;20.868;2022-08-19T01:44:18;18.17;;;13.93;;
38937;SDS011;24727;51.974;20.868;2022-08-19T01:46:49;9.30;;;8.40;;
38937;SDS011;24727;51.974;20.868;2022-08-19T01:49:17;10.82;;;9.82;;
38937;SDS011;24727;51.974;20.868;2022-08-19T01:51:44;13.48;;;12.05;;
38937;SDS011;24727;51.974;20.868;2022-08-19T01:54:11;14.40;;;12.88;;
38937;SDS011;24727;51.974;20.868;2022-08-19T01:56:39;12.57;;;11.30;;
38937;SDS011;24727;51.974;20.868;2022-08-19T01:59:11;14.85;;;13.30;;
38937;SDS011;24727;51.974;20.868;2022-08-19T02:01:39;15.85;;;13.98;;
38937;SDS011;24727;51.974;20.868;2022-08-19T02:04:08;14.82;;;12.75;;
38937;SDS011;24727;51.974;20.868;2022-08-19T02:06:36;15.68;;;13.23;;
38937;SDS011;24727;51.974;20.868;2022-08-19T02:09:06;14.63;;;13.07;;
38937;SDS011;24727;51.974;20.868;2022-08-19T02:11:34;17.75;;;13.90;;
38937;SDS011;24727;51.974;20.868;2022-08-19T02:14:03;13.98;;;12.57;;
38937;SDS011;24727;51.974;20.868;2022-08-19T02:16:31;19.15;;;14.40;;
38937;SDS011;24727;51.974;20.868;2022-08-19T02:18:58;15.80;;;14.10;;
38937;SDS011;24727;51.974;20.868;2022-08-19T02:21:28;16.83;;;13.98;;
38937;SDS011;24727;51.974;20.868;2022-08-19T02:23:56;14.43;;;12.93;;
38937;SDS011;24727;51.974;20.868;2022-08-19T02:26:22;16.50;;;12.23;;
38937;SDS011;24727;51.974;20.868;2022-08-19T02:28:48;13.88;;;12.48;;
38937;SDS011;24727;51.974;20.868;2022-08-19T02:31:16;13.25;;;11.07;;
38937;SDS011;24727;51.974;20.868;2022-08-19T02:33:47;12.73;;;11.43;;
38937;SDS011;24727;51.974;20.868;2022-08-19T02:36:15;16.88;;;14.30;;
38937;SDS011;24727;51.974;20.868;2022-08-19T02:38:49;10.93;;;9.77;;
38937;SDS011;24727;51.974;20.868;2022-08-19T02:41:18;15.13;;;13.43;;
38937;SDS011;24727;51.974;20.868;2022-08-19T02:43:47;16.27;;;13.48;;
38937;SDS011;24727;51.974;20.868;2022-08-19T02:46:22;13.65;;;12.25;;
38937;SDS011;24727;51.974;20.868;2022-08-19T02:48:53;15.13;;;11.18;;
38937;SDS011;24727;51.974;20.868;2022-08-19T02:51:26;16.98;;;13.85;;
38937;SDS011;24727;51.974;20.868;2022-08-19T02:53:58;15.30;;;13.45;;
38937;SDS011;24727;51.974;20.868;2022-08-19T02:56:27;15.68;;;14.00;;
38937;SDS011;24727;51.974;20.868;2022-08-19T02:58:54;15.48;;;13.88;;
38937;SDS011;24727;51.974;20.868;2022-08-19T03:01:27;19.35;;;13.27;;
38937;SDS011;24727;51.974;20.868;2022-08-19T03:04:05;22.45;;;13.50;;
38937;SDS011;24727;51.974;20.868;2022-08-19T03:06:32;14.20;;;11.52;;
38937;SDS011;24727;51.974;20.868;2022-08-19T03:09:01;16.17;;;12.27;;
38937;SDS011;24727;51.974;20.868;2022-08-19T03:11:28;14.18;;;12.68;;
38937;SDS011;24727;51.974;20.868;2022-08-19T03:13:56;16.50;;;12.85;;
38937;SDS011;24727;51.974;20.868;2022-08-19T03:16:25;16.23;;;13.52;;
38937;SDS011;24727;51.974;20.868;2022-08-19T03:18:52;15.27;;;13.45;;
38937;SDS011;24727;51.974;20.868;2022-08-19T03:21:23;19.05;;;13.65;;
38937;SDS011;24727;51.974;20.868;2022-08-19T03:24:03;14.60;;;12.63;;
38937;SDS011;24727;51.974;20.868;2022-08-19T03:26:39;9.73;;;8.82;;
38937;SDS011;24727;51.974;20.868;2022-08-19T03:29:08;15.32;;;12.57;;
38937;SDS011;24727;51.974;20.868;2022-08-19T03:31:36;14.63;;;12.52;;
38937;SDS011;24727;51.974;20.868;2022-08-19T03:34:03;14.00;;;12.32;;
38937;SDS011;24727;51.974;20.868;2022-08-19T03:36:30;14.75;;;12.60;;
38937;SDS011;24727;51.974;20.868;2022-08-19T03:38:57;14.80;;;12.52;;
38937;SDS011;24727;51.974;20.868;2022-08-19T03:41:25;13.70;;;11.98;;
38937;SDS011;24727;51.974;20.868;2022-08-19T03:43:55;9.70;;;8.70;;
38937;SDS011;24727;51.974;20.868;2022-08-19T03:46:23;11.00;;;9.73;;
38937;SDS011;24727;51.974;20.868;2022-08-19T03:48:52;16.75;;;12.38;;
38937;SDS011;24727;51.974;20.868;2022-08-19T03:51:22;15.77;;;12.25;;
38937;SDS011;24727;51.974;20.868;2022-08-19T03:53:57;17.50;;;13.52;;
38937;SDS011;24727;51.974;20.868;2022-08-19T03:56:25;20.25;;;16.20;;
38937;SDS011;24727;51.974;20.868;2022-08-19T03:58:54;15.82;;;12.20;;
38937;SDS011;24727;51.974;20.868;2022-08-19T04:01:26;15.25;;;13.65;;
38937;SDS011;24727;51.974;20.868;2022-08-19T04:03:53;13.68;;;12.00;;
38937;SDS011;24727;51.974;20.868;2022-08-19T04:08:48;18.30;;;15.85;;
38937;SDS011;24727;51.974;20.868;2022-08-19T04:11:20;18.10;;;15.50;;
38937;SDS011;24727;51.974;20.868;2022-08-19T04:13:51;25.60;;;14.00;;
38937;SDS011;24727;51.974;20.868;2022-08-19T04:16:18;15.43;;;13.73;;
38937;SDS011;24727;51.974;20.868;2022-08-19T04:18:48;21.33;;;14.48;;
38937;SDS011;24727;51.974;20.868;2022-08-19T04:21:15;15.13;;;12.68;;
38937;SDS011;24727;51.974;20.868;2022-08-19T04:23:43;27.27;;;14.68;;
38937;SDS011;24727;51.974;20.868;2022-08-19T04:26:14;15.00;;;13.27;;
38937;SDS011;24727;51.974;20.868;2022-08-19T04:28:47;18.20;;;15.27;;
38937;SDS011;24727;51.974;20.868;2022-08-19T04:31:21;15.73;;;14.15;;
38937;SDS011;24727;51.974;20.868;2022-08-19T04:33:56;17.63;;;15.70;;
38937;SDS011;24727;51.974;20.868;2022-08-19T04:36:26;17.38;;;14.25;;
38937;SDS011;24727;51.974;20.868;2022-08-19T04:38:54;17.90;;;14.48;;
38937;SDS011;24727;51.974;20.868;2022-08-19T04:41:23;16.50;;;14.68;;
38937;SDS011;24727;51.974;20.868;2022-08-19T04:44:09;14.88;;;12.93;;
38937;SDS011;24727;51.974;20.868;2022-08-19T04:46:36;17.98;;;15.85;;
38937;SDS011;24727;51.974;20.868;2022-08-19T04:49:05;17.73;;;15.93;;
38937;SDS011;24727;51.974;20.868;2022-08-19T04:51:33;21.35;;;13.98;;
38937;SDS011;24727;51.974;20.868;2022-08-19T04:54:00;15.65;;;12.88;;
38937;SDS011;24727;51.974;20.868;2022-08-19T04:56:27;16.40;;;13.70;;
38937;SDS011;24727;51.974;20.868;2022-08-19T04:58:56;14.70;;;13.23;;
38937;SDS011;24727;51.974;20.868;2022-08-19T05:01:28;18.33;;;14.00;;
38937;SDS011;24727;51.974;20.868;2022-08-19T05:03:55;19.15;;;16.50;;
38937;SDS011;24727;51.974;20.868;2022-08-19T05:06:25;18.33;;;14.43;;
38937;SDS011;24727;51.974;20.868;2022-08-19T05:08:52;19.40;;;16.00;;
38937;SDS011;24727;51.974;20.868;2022-08-19T05:11:19;18.35;;;15.13;;
38937;SDS011;24727;51.974;20.868;2022-08-19T05:13:48;17.58;;;15.70;;
38937;SDS011;24727;51.974;20.868;2022-08-19T05:16:22;18.75;;;16.83;;
38937;SDS011;24727;51.974;20.868;2022-08-19T05:18:49;18.73;;;15.82;;
38937;SDS011;24727;51.974;20.868;2022-08-19T05:21:34;15.95;;;14.38;;
38937;SDS011;24727;51.974;20.868;2022-08-19T05:24:20;17.70;;;15.15;;
38937;SDS011;24727;51.974;20.868;2022-08-19T05:26:47;14.73;;;13.27;;
38937;SDS011;24727;51.974;20.868;2022-08-19T05:29:17;19.00;;;17.00;;
38937;SDS011;24727;51.974;20.868;2022-08-19T05:31:47;23.27;;;20.77;;
38937;SDS011;24727;51.974;20.868;2022-08-19T05:34:15;21.30;;;18.92;;
38937;SDS011;24727;51.974;20.868;2022-08-19T05:36:43;28.52;;;20.13;;
38937;SDS011;24727;51.974;20.868;2022-08-19T05:39:15;21.83;;;18.10;;
38937;SDS011;24727;51.974;20.868;2022-08-19T05:41:44;21.83;;;18.23;;
38937;SDS011;24727;51.974;20.868;2022-08-19T05:44:13;26.63;;;17.52;;
38937;SDS011;24727;51.974;20.868;2022-08-19T05:46:42;22.55;;;20.05;;
38937;SDS011;24727;51.974;20.868;2022-08-19T05:49:12;25.80;;;19.58;;
38937;SDS011;24727;51.974;20.868;2022-08-19T05:51:40;27.35;;;20.35;;
38937;SDS011;24727;51.974;20.868;2022-08-19T05:54:08;23.23;;;20.63;;
38937;SDS011;24727;51.974;20.868;2022-08-19T05:56:37;23.85;;;21.13;;
38937;SDS011;24727;51.974;20.868;2022-08-19T05:59:03;28.48;;;20.75;;
38937;SDS011;24727;51.974;20.868;2022-08-19T06:01:43;27.40;;;21.90;;
38937;SDS011;24727;51.974;20.868;2022-08-19T06:04:11;21.67;;;19.25;;
38937;SDS011;24727;51.974;20.868;2022-08-19T06:06:38;22.95;;;19.05;;
38937;SDS011;24727;51.974;20.868;2022-08-19T06:09:05;25.75;;;19.83;;
38937;SDS011;24727;51.974;20.868;2022-08-19T06:11:47;26.95;;;22.02;;
38937;SDS011;24727;51.974;20.868;2022-08-19T06:14:29;23.60;;;19.75;;
38937;SDS011;24727;51.974;20.868;2022-08-19T06:19:29;25.10;;;20.27;;
38937;SDS011;24727;51.974;20.868;2022-08-19T06:21:56;24.20;;;18.25;;
38937;SDS011;24727;51.974;20.868;2022-08-19T06:24:24;27.95;;;20.15;;
38937;SDS011;24727;51.974;20.868;2022-08-19T06:26:52;22.60;;;20.15;;
38937;SDS011;24727;51.974;20.868;2022-08-19T06:29:22;25.65;;;18.73;;
38937;SDS011;24727;51.974;20.868;2022-08-19T06:31:51;18.25;;;16.40;;
38937;SDS011;24727;51.974;20.868;2022-08-19T06:34:19;20.75;;;18.33;;
38937;SDS011;24727;51.974;20.868;2022-08-19T06:36:48;20.48;;;17.73;;
38937;SDS011;24727;51.974;20.868;2022-08-19T06:39:16;21.60;;;17.05;;
38937;SDS011;24727;51.974;20.868;2022-08-19T06:41:46;16.13;;;14.43;;
38937;SDS011;24727;51.974;20.868;2022-08-19T06:44:14;19.23;;;17.17;;
38937;SDS011;24727;51.974;20.868;2022-08-19T06:46:40;18.52;;;16.60;;
38937;SDS011;24727;51.974;20.868;2022-08-19T06:49:07;14.82;;;13.25;;
38937;SDS011;24727;51.974;20.868;2022-08-19T06:51:40;21.27;;;17.98;;
38937;SDS011;24727;51.974;20.868;2022-08-19T06:54:07;21.73;;;16.60;;
38937;SDS011;24727;51.974;20.868;2022-08-19T06:56:34;28.33;;;17.30;;
38937;SDS011;24727;51.974;20.868;2022-08-19T06:59:01;18.70;;;14.57;;
38937;SDS011;24727;51.974;20.868;2022-08-19T07:01:40;18.95;;;15.02;;
38937;SDS011;24727;51.974;20.868;2022-08-19T07:04:11;23.13;;;15.63;;
38937;SDS011;24727;51.974;20.868;2022-08-19T07:06:40;21.80;;;17.15;;
38937;SDS011;24727;51.974;20.868;2022-08-19T07:09:07;16.77;;;15.13;;
38937;SDS011;24727;51.974;20.868;2022-08-19T07:11:34;19.00;;;15.35;;
38937;SDS011;24727;51.974;20.868;2022-08-19T07:14:03;23.80;;;16.10;;
38937;SDS011;24727;51.974;20.868;2022-08-19T07:16:31;17.33;;;12.98;;
38937;SDS011;24727;51.974;20.868;2022-08-19T07:18:58;16.02;;;11.88;;
38937;SDS011;24727;51.974;20.868;2022-08-19T07:21:25;14.65;;;11.65;;
38937;SDS011;24727;51.974;20.868;2022-08-19T07:23:54;14.73;;;12.52;;
38937;SDS011;24727;51.974;20.868;2022-08-19T07:26:22;23.83;;;14.98;;
38937;SDS011;24727;51.974;20.868;2022-08-19T07:28:52;16.02;;;13.38;;
38937;SDS011;24727;51.974;20.868;2022-08-19T07:31:20;15.45;;;13.38;;
38937;SDS011;24727;51.974;20.868;2022-08-19T07:33:48;12.80;;;11.30;;
38937;SDS011;24727;51.974;20.868;2022-08-19T07:36:17;17.27;;;11.20;;
38937;SDS011;24727;51.974;20.868;2022-08-19T07:38:46;20.02;;;12.35;;
38937;SDS011;24727;51.974;20.868;2022-08-19T07:41:16;18.38;;;11.63;;
38937;SDS011;24727;51.974;20.868;2022-08-19T07:43:45;14.80;;;12.02;;
38937;SDS011;24727;51.974;20.868;2022-08-19T07:46:13;12.50;;;11.23;;
38937;SDS011;24727;51.974;20.868;2022-08-19T07:48:44;15.05;;;11.50;;
38937;SDS011;24727;51.974;20.868;2022-08-19T07:51:13;15.30;;;11.80;;
38937;SDS011;24727;51.974;20.868;2022-08-19T07:53:46;9.88;;;8.88;;
38937;SDS011;24727;51.974;20.868;2022-08-19T07:56:16;12.00;;;10.15;;
38937;SDS011;24727;51.974;20.868;2022-08-19T07:58:44;10.73;;;9.30;;
38937;SDS011;24727;51.974;20.868;2022-08-19T08:01:13;9.60;;;8.25;;
38937;SDS011;24727;51.974;20.868;2022-08-19T08:03:42;17.13;;;11.13;;
38937;SDS011;24727;51.974;20.868;2022-08-19T08:06:27;17.85;;;10.13;;
38937;SDS011;24727;51.974;20.868;2022-08-19T08:09:13;11.20;;;9.93;;
38937;SDS011;24727;51.974;20.868;2022-08-19T08:11:50;12.10;;;9.70;;
38937;SDS011;24727;51.974;20.868;2022-08-19T08:14:20;14.77;;;10.00;;
38937;SDS011;24727;51.974;20.868;2022-08-19T08:16:56;15.20;;;11.00;;
38937;SDS011;24727;51.974;20.868;2022-08-19T08:19:22;14.00;;;8.75;;
38937;SDS011;24727;51.974;20.868;2022-08-19T08:21:51;11.95;;;10.30;;
38937;SDS011;24727;51.974;20.868;2022-08-19T08:24:18;10.73;;;8.63;;
38937;SDS011;24727;51.974;20.868;2022-08-19T08:26:45;12.65;;;8.85;;
38937;SDS011;24727;51.974;20.868;2022-08-19T08:29:12;10.20;;;9.15;;
38937;SDS011;24727;51.974;20.868;2022-08-19T08:31:43;12.15;;;8.75;;
38937;SDS011;24727;51.974;20.868;2022-08-19T08:34:11;12.77;;;8.93;;
38937;SDS011;24727;51.974;20.868;2022-08-19T08:36:42;11.57;;;9.20;;
38937;SDS011;24727;51.974;20.868;2022-08-19T08:41:42;10.35;;;8.02;;
38937;SDS011;24727;51.974;20.868;2022-08-19T08:44:17;9.80;;;8.80;;
38937;SDS011;24727;51.974;20.868;2022-08-19T08:47:20;12.90;;;8.32;;
38937;SDS011;24727;51.974;20.868;2022-08-19T08:49:47;12.07;;;8.27;;
38937;SDS011;24727;51.974;20.868;2022-08-19T08:52:48;15.30;;;9.45;;
38937;SDS011;24727;51.974;20.868;2022-08-19T08:55:19;7.18;;;6.47;;
38937;SDS011;24727;51.974;20.868;2022-08-19T09:00:23;8.93;;;7.68;;
38937;SDS011;24727;51.974;20.868;2022-08-19T09:02:56;12.50;;;9.07;;
38937;SDS011;24727;51.974;20.868;2022-08-19T09:05:23;10.60;;;8.32;;
38937;SDS011;24727;51.974;20.868;2022-08-19T09:15:31;14.35;;;8.27;;
38937;SDS011;24727;51.974;20.868;2022-08-19T09:18:05;10.40;;;9.10;;
38937;SDS011;24727;51.974;20.868;2022-08-19T09:20:33;17.08;;;8.60;;
38937;SDS011;24727;51.974;20.868;2022-08-19T09:22:59;9.10;;;8.23;;
38937;SDS011;24727;51.974;20.868;2022-08-19T09:25:25;9.05;;;8.15;;
38937;SDS011;24727;51.974;20.868;2022-08-19T09:27:52;15.00;;;9.23;;
38937;SDS011;24727;51.974;20.868;2022-08-19T09:30:21;10.65;;;8.07;;
38937;SDS011;24727;51.974;20.868;2022-08-19T09:32:50;12.88;;;8.15;;
38937;SDS011;24727;51.974;20.868;2022-08-19T09:35:20;13.75;;;8.95;;
38937;SDS011;24727;51.974;20.868;2022-08-19T09:37:49;11.32;;;8.32;;
38937;SDS011;24727;51.974;20.868;2022-08-19T09:40:18;9.82;;;8.18;;
38937;SDS011;24727;51.974;20.868;2022-08-19T09:42:45;13.23;;;8.55;;
38937;SDS011;24727;51.974;20.868;2022-08-19T09:45:18;14.13;;;8.02;;
38937;SDS011;24727;51.974;20.868;2022-08-19T09:47:47;23.73;;;9.13;;
38937;SDS011;24727;51.974;20.868;2022-08-19T09:50:16;16.60;;;8.35;;
38937;SDS011;24727;51.974;20.868;2022-08-19T09:52:44;10.70;;;8.45;;
38937;SDS011;24727;51.974;20.868;2022-08-19T09:55:11;11.85;;;8.98;;
38937;SDS011;24727;51.974;20.868;2022-08-19T09:57:41;12.98;;;9.63;;
38937;SDS011;24727;51.974;20.868;2022-08-19T10:00:08;10.57;;;8.50;;
38937;SDS011;24727;51.974;20.868;2022-08-19T10:02:35;13.73;;;8.25;;
38937;SDS011;24727;51.974;20.868;2022-08-19T10:05:02;11.07;;;8.48;;
38937;SDS011;24727;51.974;20.868;2022-08-19T10:07:47;11.15;;;8.32;;
38937;SDS011;24727;51.974;20.868;2022-08-19T10:10:12;10.73;;;8.18;;
38937;SDS011;24727;51.974;20.868;2022-08-19T10:12:38;11.93;;;8.10;;
38937;SDS011;24727;51.974;20.868;2022-08-19T10:15:05;9.07;;;8.27;;
38937;SDS011;24727;51.974;20.868;2022-08-19T10:17:31;14.13;;;8.20;;
38937;SDS011;24727;51.974;20.868;2022-08-19T10:20:01;10.98;;;8.10;;
38937;SDS011;24727;51.974;20.868;2022-08-19T10:22:29;11.75;;;7.60;;
38937;SDS011;24727;51.974;20.868;2022-08-19T10:24:55;11.73;;;7.45;;
38937;SDS011;24727;51.974;20.868;2022-08-19T10:27:22;11.13;;;7.68;;
38937;SDS011;24727;51.974;20.868;2022-08-19T10:29:48;10.30;;;7.45;;
38937;SDS011;24727;51.974;20.868;2022-08-19T10:34:43;7.93;;;7.05;;
38937;SDS011;24727;51.974;20.868;2022-08-19T10:37:09;15.07;;;7.72;;
38937;SDS011;24727;51.974;20.868;2022-08-19T10:39:35;8.48;;;7.30;;
38937;SDS011;24727;51.974;20.868;2022-08-19T10:42:05;15.15;;;6.85;;
38937;SDS011;24727;51.974;20.868;2022-08-19T10:44:34;10.32;;;6.55;;
38937;SDS011;24727;51.974;20.868;2022-08-19T10:47:00;8.57;;;6.93;;
38937;SDS011;24727;51.974;20.868;2022-08-19T10:49:27;10.35;;;6.72;;
38937;SDS011;24727;51.974;20.868;2022-08-19T10:51:56;13.82;;;6.85;;
38937;SDS011;24727;51.974;20.868;2022-08-19T10:54:40;9.90;;;6.07;;
38937;SDS011;24727;51.974;20.868;2022-08-19T10:57:25;9.90;;;6.28;;
38937;SDS011;24727;51.974;20.868;2022-08-19T10:59:56;9.23;;;6.05;;
38937;SDS011;24727;51.974;20.868;2022-08-19T11:02:22;6.93;;;5.75;;
38937;SDS011;24727;51.974;20.868;2022-08-19T11:04:48;13.73;;;6.95;;
38937;SDS011;24727;51.974;20.868;2022-08-19T11:07:16;7.25;;;6.55;;
38937;SDS011;24727;51.974;20.868;2022-08-19T11:09:43;11.80;;;5.90;;
38937;SDS011;24727;51.974;20.868;2022-08-19T11:12:09;11.23;;;6.63;;
38937;SDS011;24727;51.974;20.868;2022-08-19T11:14:35;7.47;;;6.63;;
38937;SDS011;24727;51.974;20.868;2022-08-19T11:17:02;9.70;;;6.97;;
38937;SDS011;24727;51.974;20.868;2022-08-19T11:19:30;12.95;;;6.63;;
38937;SDS011;24727;51.974;20.868;2022-08-19T11:21:57;10.90;;;6.22;;
38937;SDS011;24727;51.974;20.868;2022-08-19T11:24:33;8.00;;;6.20;;
38937;SDS011;24727;51.974;20.868;2022-08-19T11:27:02;11.50;;;6.60;;
38937;SDS011;24727;51.974;20.868;2022-08-19T11:29:32;7.88;;;6.80;;
38937;SDS011;24727;51.974;20.868;2022-08-19T11:32:00;6.40;;;5.75;;
38937;SDS011;24727;51.974;20.868;2022-08-19T11:34:29;10.50;;;6.28;;
38937;SDS011;24727;51.974;20.868;2022-08-19T11:36:56;8.20;;;6.00;;
38937;SDS011;24727;51.974;20.868;2022-08-19T11:39:24;13.70;;;5.75;;
38937;SDS011;24727;51.974;20.868;2022-08-19T11:41:51;8.40;;;5.72;;
38937;SDS011;24727;51.974;20.868;2022-08-19T11:44:18;9.88;;;6.80;;
38937;SDS011;24727;51.974;20.868;2022-08-19T11:46:45;9.10;;;7.28;;
38937;SDS011;24727;51.974;20.868;2022-08-19T11:49:12;10.15;;;6.43;;
38937;SDS011;24727;51.974;20.868;2022-08-19T11:51:40;11.80;;;8.07;;
38937;SDS011;24727;51.974;20.868;2022-08-19T11:54:08;13.63;;;7.32;;
38937;SDS011;24727;51.974;20.868;2022-08-19T11:56:36;11.10;;;6.95;;
38937;SDS011;24727;51.974;20.868;2022-08-19T11:59:04;17.92;;;8.07;;
38937;SDS011;24727;51.974;20.868;2022-08-19T12:01:30;7.72;;;6.90;;
38937;SDS011;24727;51.974;20.868;2022-08-19T12:03:57;9.82;;;6.97;;
38937;SDS011;24727;51.974;20.868;2022-08-19T12:06:26;7.65;;;6.85;;
38937;SDS011;24727;51.974;20.868;2022-08-19T12:08:56;8.90;;;6.20;;
38937;SDS011;24727;51.974;20.868;2022-08-19T12:11:23;9.35;;;6.97;;
38937;SDS011;24727;51.974;20.868;2022-08-19T12:13:51;14.00;;;7.80;;
38937;SDS011;24727;51.974;20.868;2022-08-19T12:16:20;8.30;;;6.93;;
38937;SDS011;24727;51.974;20.868;2022-08-19T12:18:50;14.88;;;7.20;;
38937;SDS011;24727;51.974;20.868;2022-08-19T12:21:18;10.07;;;6.85;;
38937;SDS011;24727;51.974;20.868;2022-08-19T12:23:48;10.48;;;6.97;;
38937;SDS011;24727;51.974;20.868;2022-08-19T12:26:15;12.32;;;7.90;;
38937;SDS011;24727;51.974;20.868;2022-08-19T12:28:43;9.05;;;7.25;;
38937;SDS011;24727;51.974;20.868;2022-08-19T12:31:10;14.00;;;7.70;;
38937;SDS011;24727;51.974;20.868;2022-08-19T12:33:37;13.07;;;7.32;;
38937;SDS011;24727;51.974;20.868;2022-08-19T12:36:05;13.23;;;7.40;;
38937;SDS011;24727;51.974;20.868;2022-08-19T12:38:33;10.90;;;7.25;;
38937;SDS011;24727;51.974;20.868;2022-08-19T12:41:03;10.88;;;6.47;;
38937;SDS011;24727;51.974;20.868;2022-08-19T12:43:32;9.27;;;7.13;;
38937;SDS011;24727;51.974;20.868;2022-08-19T12:46:02;10.10;;;7.78;;
38937;SDS011;24727;51.974;20.868;2022-08-19T12:48:32;11.13;;;7.20;;
38937;SDS011;24727;51.974;20.868;2022-08-19T12:51:01;8.73;;;7.18;;
38937;SDS011;24727;51.974;20.868;2022-08-19T12:53:33;8.98;;;6.85;;
38937;SDS011;24727;51.974;20.868;2022-08-19T12:56:00;8.77;;;7.13;;
38937;SDS011;24727;51.974;20.868;2022-08-19T12:58:27;11.98;;;7.32;;
38937;SDS011;24727;51.974;20.868;2022-08-19T13:01:27;13.10;;;8.35;;
38937;SDS011;24727;51.974;20.868;2022-08-19T13:03:47;12.07;;;7.38;;
38937;SDS011;24727;51.974;20.868;2022-08-19T13:06:13;18.85;;;7.70;;
38937;SDS011;24727;51.974;20.868;2022-08-19T13:08:41;8.07;;;6.57;;
38937;SDS011;24727;51.974;20.868;2022-08-19T13:11:09;12.38;;;7.22;;
38937;SDS011;24727;51.974;20.868;2022-08-19T13:13:39;13.23;;;6.68;;
38937;SDS011;24727;51.974;20.868;2022-08-19T13:16:07;12.23;;;7.15;;
38937;SDS011;24727;51.974;20.868;2022-08-19T13:18:36;11.75;;;6.85;;
38937;SDS011;24727;51.974;20.868;2022-08-19T13:21:04;10.50;;;6.32;;
38937;SDS011;24727;51.974;20.868;2022-08-19T13:23:33;11.95;;;7.50;;
38937;SDS011;24727;51.974;20.868;2022-08-19T13:26:04;12.02;;;6.75;;
38937;SDS011;24727;51.974;20.868;2022-08-19T13:28:32;11.02;;;6.72;;
38937;SDS011;24727;51.974;20.868;2022-08-19T13:31:18;10.80;;;7.07;;
38937;SDS011;24727;51.974;20.868;2022-08-19T13:34:27;12.55;;;7.40;;
38937;SDS011;24727;51.974;20.868;2022-08-19T13:37:05;9.90;;;7.18;;
38937;SDS011;24727;51.974;20.868;2022-08-19T13:39:32;10.18;;;7.18;;
38937;SDS011;24727;51.974;20.868;2022-08-19T13:41:58;13.18;;;7.70;;
38937;SDS011;24727;51.974;20.868;2022-08-19T13:44:27;11.82;;;7.78;;
38937;SDS011;24727;51.974;20.868;2022-08-19T13:46:55;9.68;;;7.03;;
38937;SDS011;24727;51.974;20.868;2022-08-19T13:49:34;8.30;;;6.65;;
38937;SDS011;24727;51.974;20.868;2022-08-19T13:52:03;14.80;;;7.75;;
38937;SDS011;24727;51.974;20.868;2022-08-19T13:54:30;11.48;;;6.70;;
38937;SDS011;24727;51.974;20.868;2022-08-19T13:56:57;13.18;;;7.38;;
38937;SDS011;24727;51.974;20.868;2022-08-19T13:59:23;12.60;;;6.70;;
38937;SDS011;24727;51.974;20.868;2022-08-19T14:01:51;8.75;;;6.95;;
38937;SDS011;24727;51.974;20.868;2022-08-19T14:04:17;9.70;;;6.80;;
38937;SDS011;24727;51.974;20.868;2022-08-19T14:06:43;11.40;;;6.97;;
38937;SDS011;24727;51.974;20.868;2022-08-19T14:09:09;7.50;;;6.60;;
38937;SDS011;24727;51.974;20.868;2022-08-19T14:11:37;8.50;;;7.03;;
38937;SDS011;24727;51.974;20.868;2022-08-19T14:14:03;8.63;;;6.53;;
38937;SDS011;24727;51.974;20.868;2022-08-19T14:16:31;13.15;;;7.03;;
38937;SDS011;24727;51.974;20.868;2022-08-19T14:18:58;12.25;;;6.93;;
38937;SDS011;24727;51.974;20.868;2022-08-19T14:21:24;14.45;;;6.20;;
38937;SDS011;24727;51.974;20.868;2022-08-19T14:23:51;10.40;;;6.38;;
38937;SDS011;24727;51.974;20.868;2022-08-19T14:26:18;8.80;;;6.45;;
38937;SDS011;24727;51.974;20.868;2022-08-19T14:28:47;12.52;;;7.00;;
38937;SDS011;24727;51.974;20.868;2022-08-19T14:31:16;8.88;;;6.72;;
38937;SDS011;24727;51.974;20.868;2022-08-19T14:33:44;11.40;;;7.07;;
38937;SDS011;24727;51.974;20.868;2022-08-19T14:36:13;10.05;;;6.53;;
38937;SDS011;24727;51.974;20.868;2022-08-19T14:38:40;10.68;;;6.70;;
38937;SDS011;24727;51.974;20.868;2022-08-19T14:43:46;12.90;;;7.35;;
38937;SDS011;24727;51.974;20.868;2022-08-19T14:46:22;10.60;;;6.53;;
38937;SDS011;24727;51.974;20.868;2022-08-19T14:48:51;14.15;;;7.28;;
38937;SDS011;24727;51.974;20.868;2022-08-19T14:51:18;9.35;;;6.72;;
38937;SDS011;24727;51.974;20.868;2022-08-19T14:53:45;12.05;;;6.97;;